PWSweather.com
Personal Weather Stations
Station Observations
KILMORRI1
Goose Lake, Morris, IL 60450

Goose LakeMorris, IL 60450

Lat: 41.34, Lon: -88.3

Elevation: 523

Station Type:

www.gooselakeweather.com

High Low Average
Temperature 86.2°F30.1°C 69.3°F20.7°C 76.6°F24.8°C
Dew Point 76.9°F24.9°C 67.8°F19.9°C 72.4°F22.4°C
Winds 10.4 mph 16.7 kmh Calm Calm 3.0 mph WSW4.8 kmh WSW
Wind Gusts 17.3 mph27.8 kmh -- 4.0 mph6.4 kmh
Humidity 97% 68% 87%
Pressure 29.84 in1010.5 mb 29.67 in1004.7 mb -
Precipitation 0.80 in20.3 mm - -
Hour Temp Dew Point Humidity Winds Wind Gusts Pressure Precip Precip Rate Daily Precip Total
12:00 AM 70.7°F21.5°C 69.5°F20.8°C 96% 2.3 mph WSW3.7 kmh WSW 3.5 mph5.6 kmh 29.83 in1010.2 mb - 0.11 in2.8 mm 0.11 in2.8 mm
12:10 AM 70.6°F21.4°C 69.4°F20.8°C 96% 2.3 mph W3.7 kmh W 2.3 mph3.7 kmh 29.83 in1010.2 mb - 0.00 in0.0 mm 0.11 in2.8 mm
12:20 AM 70.5°F21.4°C 69.3°F20.7°C 96% 3.5 mph W5.6 kmh W 3.5 mph5.6 kmh 29.81 in1009.5 mb - 0.00 in0.0 mm 0.11 in2.8 mm
12:30 AM 70.4°F21.3°C 69.2°F20.7°C 96% 2.3 mph SE3.7 kmh SE 3.5 mph5.6 kmh 29.81 in1009.5 mb - 0.00 in0.0 mm 0.11 in2.8 mm
12:40 AM 70.6°F21.4°C 69.4°F20.8°C 96% Calm Calm 2.3 mph3.7 kmh 29.83 in1010.2 mb - 0.06 in1.5 mm 0.06 in1.5 mm
12:50 AM 70.6°F21.4°C 69.4°F20.8°C 96% 5.8 mph NE9.3 kmh NE 8.1 mph13.0 kmh 29.80 in1009.1 mb - 0.03 in0.8 mm 0.08 in2.0 mm
01:00 AM 70.6°F21.4°C 69.4°F20.8°C 96% 8.1 mph E13.0 kmh E 11.5 mph18.5 kmh 29.78 in1008.5 mb - 0.04 in1.0 mm 0.12 in3.0 mm
01:10 AM 71.8°F22.1°C 70.9°F21.6°C 97% 10.4 mph E16.7 kmh E 16.1 mph25.9 kmh 29.77 in1008.1 mb - 0.03 in0.8 mm 0.14 in3.6 mm
01:20 AM 71.4°F21.9°C 70.2°F21.2°C 96% 8.1 mph ESE13.0 kmh ESE 12.7 mph20.4 kmh 29.76 in1007.8 mb - 0.00 in0.0 mm 0.14 in3.6 mm
01:30 AM 71.6°F22.0°C 70.4°F21.3°C 96% 8.1 mph ESE13.0 kmh ESE 11.5 mph18.5 kmh 29.77 in1008.1 mb - 0.00 in0.0 mm 0.14 in3.6 mm
01:40 AM 71.7°F22.1°C 70.5°F21.4°C 96% 5.8 mph ESE9.3 kmh ESE 8.1 mph13.0 kmh 29.75 in1007.5 mb - 0.00 in0.0 mm 0.14 in3.6 mm
01:50 AM 71.7°F22.1°C 70.5°F21.4°C 96% 3.5 mph S5.6 kmh S 4.6 mph7.4 kmh 29.76 in1007.8 mb - 0.00 in0.0 mm 0.14 in3.6 mm
02:00 AM 71.8°F22.1°C 70.6°F21.4°C 96% 1.2 mph SE1.9 kmh SE 3.5 mph5.6 kmh 29.76 in1007.8 mb - 0.00 in0.0 mm 0.14 in3.6 mm
02:10 AM 71.8°F22.1°C 70.9°F21.6°C 97% 2.3 mph SE3.7 kmh SE 3.5 mph5.6 kmh 29.76 in1007.8 mb - 0.00 in0.0 mm 0.14 in3.6 mm
02:20 AM 71.9°F22.2°C 71.0°F21.7°C 97% 3.5 mph SE5.6 kmh SE 3.5 mph5.6 kmh 29.77 in1008.1 mb - 0.00 in0.0 mm 0.14 in3.6 mm
02:30 AM 72.0°F22.2°C 71.1°F21.7°C 97% Calm Calm 2.3 mph3.7 kmh 29.77 in1008.1 mb - 0.00 in0.0 mm 0.14 in3.6 mm
02:40 AM 72.0°F22.2°C 71.1°F21.7°C 97% 2.3 mph SSE3.7 kmh SSE 3.5 mph5.6 kmh 29.76 in1007.8 mb - 0.00 in0.0 mm 0.14 in3.6 mm
02:50 AM 71.8°F22.1°C 70.6°F21.4°C 96% 6.9 mph NW11.1 kmh NW 17.3 mph27.8 kmh 29.81 in1009.5 mb - 0.00 in0.0 mm 0.14 in3.6 mm
03:00 AM 72.1°F22.3°C 70.9°F21.6°C 96% 4.6 mph W7.4 kmh W 9.2 mph14.8 kmh 29.81 in1009.5 mb - 0.00 in0.0 mm 0.14 in3.6 mm
03:10 AM 72.3°F22.4°C 70.8°F21.6°C 95% Calm Calm 2.3 mph3.7 kmh 29.79 in1008.8 mb - 0.01 in0.3 mm 0.15 in3.8 mm
03:20 AM 71.9°F22.2°C 70.7°F21.5°C 96% Calm Calm -- 29.80 in1009.1 mb - 0.00 in0.0 mm 0.15 in3.8 mm
03:30 AM 71.8°F22.1°C 70.6°F21.4°C 96% 1.2 mph WSW1.9 kmh WSW 3.5 mph5.6 kmh 29.80 in1009.1 mb - 0.00 in0.0 mm 0.15 in3.8 mm
03:40 AM 71.7°F22.1°C 70.5°F21.4°C 96% 2.3 mph S3.7 kmh S 3.5 mph5.6 kmh 29.78 in1008.5 mb - 0.00 in0.0 mm 0.15 in3.8 mm
03:50 AM 72.0°F22.2°C 70.8°F21.6°C 96% 3.5 mph WNW5.6 kmh WNW 8.1 mph13.0 kmh 29.82 in1009.8 mb - 0.01 in0.3 mm 0.16 in4.1 mm
04:00 AM 71.9°F22.2°C 70.7°F21.5°C 96% 3.5 mph NW5.6 kmh NW 5.8 mph9.3 kmh 29.82 in1009.8 mb - 0.10 in2.5 mm 0.26 in6.6 mm
04:10 AM 71.6°F22.0°C 70.1°F21.2°C 95% 4.6 mph NW7.4 kmh NW 9.2 mph14.8 kmh 29.83 in1010.2 mb - 0.03 in0.8 mm 0.29 in7.4 mm
04:20 AM 71.1°F21.7°C 69.6°F20.9°C 95% 4.6 mph W7.4 kmh W 6.9 mph11.1 kmh 29.83 in1010.2 mb - 0.03 in0.8 mm 0.32 in8.1 mm
04:30 AM 70.9°F21.6°C 69.4°F20.8°C 95% 3.5 mph NW5.6 kmh NW 4.6 mph7.4 kmh 29.83 in1010.2 mb - 0.04 in1.0 mm 0.36 in9.1 mm
04:40 AM 70.8°F21.6°C 69.6°F20.9°C 96% 1.2 mph N1.9 kmh N 1.2 mph1.9 kmh 29.81 in1009.5 mb - 0.04 in1.0 mm 0.40 in10.2 mm
04:50 AM 70.8°F21.6°C 69.6°F20.9°C 96% 2.3 mph NW3.7 kmh NW 4.6 mph7.4 kmh 29.82 in1009.8 mb - 0.03 in0.8 mm 0.43 in10.9 mm
05:00 AM 70.7°F21.5°C 69.5°F20.8°C 96% Calm Calm 3.5 mph5.6 kmh 29.84 in1010.5 mb - 0.03 in0.8 mm 0.45 in11.4 mm
05:10 AM 70.3°F21.3°C 69.1°F20.6°C 96% 5.8 mph W9.3 kmh W 9.2 mph14.8 kmh 29.84 in1010.5 mb - 0.03 in0.8 mm 0.48 in12.2 mm
05:20 AM 70.2°F21.2°C 69.0°F20.6°C 96% 3.5 mph W5.6 kmh W 4.6 mph7.4 kmh 29.84 in1010.5 mb - 0.03 in0.8 mm 0.51 in13.0 mm
05:30 AM 70.2°F21.2°C 69.0°F20.6°C 96% 4.6 mph W7.4 kmh W 11.5 mph18.5 kmh 29.82 in1009.8 mb - 0.02 in0.5 mm 0.53 in13.5 mm
05:40 AM 70.2°F21.2°C 69.0°F20.6°C 96% 4.6 mph WSW7.4 kmh WSW 5.8 mph9.3 kmh 29.82 in1009.8 mb - 0.02 in0.5 mm 0.55 in14.0 mm
05:50 AM 70.4°F21.3°C 69.2°F20.7°C 96% 8.1 mph SW13.0 kmh SW 12.7 mph20.4 kmh 29.83 in1010.2 mb - 0.03 in0.8 mm 0.58 in14.7 mm
06:00 AM 70.5°F21.4°C 69.3°F20.7°C 96% 3.5 mph WSW5.6 kmh WSW 6.9 mph11.1 kmh 29.82 in1009.8 mb - 0.01 in0.3 mm 0.59 in15.0 mm
06:10 AM 70.5°F21.4°C 69.4°F20.8°C 96% 4.6 mph SW7.4 kmh SW 6.9 mph11.1 kmh 29.81 in1009.5 mb - 0.02 in0.5 mm 0.61 in15.5 mm
06:20 AM 70.5°F21.4°C 69.3°F20.7°C 96% 2.3 mph SW3.7 kmh SW 4.6 mph7.4 kmh 29.80 in1009.1 mb - 0.01 in0.3 mm 0.62 in15.7 mm
06:30 AM 70.4°F21.3°C 69.2°F20.7°C 96% 3.5 mph SW5.6 kmh SW 4.6 mph7.4 kmh 29.82 in1009.8 mb - 0.03 in0.8 mm 0.65 in16.5 mm
06:40 AM 70.2°F21.2°C 69.0°F20.6°C 96% 5.8 mph SW9.3 kmh SW 9.2 mph14.8 kmh 29.82 in1009.8 mb - 0.03 in0.8 mm 0.68 in17.3 mm
06:50 AM 70.0°F21.1°C 68.5°F20.3°C 95% 3.5 mph SW5.6 kmh SW 6.9 mph11.1 kmh 29.82 in1009.8 mb - 0.02 in0.5 mm 0.70 in17.8 mm
07:00 AM 69.7°F20.9°C 68.2°F20.1°C 95% 4.6 mph WSW7.4 kmh WSW 6.9 mph11.1 kmh 29.84 in1010.5 mb - 0.02 in0.5 mm 0.72 in18.3 mm
07:10 AM 69.5°F20.8°C 68.0°F20.0°C 95% 4.6 mph SW7.4 kmh SW 8.1 mph13.0 kmh 29.83 in1010.2 mb - 0.02 in0.5 mm 0.74 in18.8 mm
07:20 AM 69.4°F20.8°C 67.9°F19.9°C 95% 3.5 mph S5.6 kmh S 6.9 mph11.1 kmh 29.81 in1009.5 mb - 0.02 in0.5 mm 0.76 in19.3 mm
07:30 AM 69.4°F20.8°C 67.9°F19.9°C 95% 6.9 mph SSW11.1 kmh SSW 11.5 mph18.5 kmh 29.79 in1008.8 mb - 0.02 in0.5 mm 0.78 in19.8 mm
07:40 AM 69.3°F20.7°C 67.8°F19.9°C 95% 5.8 mph SSW9.3 kmh SSW 9.2 mph14.8 kmh 29.78 in1008.5 mb - 0.01 in0.3 mm 0.79 in20.1 mm
07:50 AM 69.4°F20.8°C 67.9°F19.9°C 95% 4.6 mph S7.4 kmh S 11.5 mph18.5 kmh 29.74 in1007.1 mb - 0.00 in0.0 mm 0.79 in20.1 mm
08:00 AM 69.5°F20.8°C 68.0°F20.0°C 95% 9.2 mph S14.8 kmh S 15.0 mph24.1 kmh 29.70 in1005.8 mb - 0.01 in0.3 mm 0.80 in20.3 mm
08:10 AM 69.7°F20.9°C 67.9°F19.9°C 94% 8.1 mph SSW13.0 kmh SSW 9.2 mph14.8 kmh 29.69 in1005.4 mb - 0.00 in0.0 mm 0.80 in20.3 mm
08:20 AM 69.9°F21.1°C 67.8°F19.9°C 93% 4.6 mph S7.4 kmh S 8.1 mph13.0 kmh 29.67 in1004.7 mb - 0.00 in0.0 mm 0.80 in20.3 mm
08:30 AM 70.3°F21.3°C 67.8°F19.9°C 92% 5.8 mph SSW9.3 kmh SSW 9.2 mph14.8 kmh 29.69 in1005.4 mb - 0.00 in0.0 mm 0.80 in20.3 mm
08:40 AM 70.5°F21.4°C 68.0°F20.0°C 92% 6.9 mph SW11.1 kmh SW 8.1 mph13.0 kmh 29.70 in1005.8 mb - 0.00 in0.0 mm 0.80 in20.3 mm
08:50 AM 71.0°F21.7°C 68.2°F20.1°C 91% 1.2 mph W1.9 kmh W 3.5 mph5.6 kmh 29.72 in1006.4 mb - 0.00 in0.0 mm 0.80 in20.3 mm
09:00 AM 71.7°F22.1°C 68.9°F20.5°C 91% Calm Calm 1.2 mph1.9 kmh 29.73 in1006.8 mb - 0.00 in0.0 mm 0.80 in20.3 mm
09:10 AM 71.6°F22.0°C 68.9°F20.5°C 91% 2.3 mph SW3.7 kmh SW 3.5 mph5.6 kmh 29.72 in1006.4 mb - 0.00 in0.0 mm 0.80 in20.3 mm
09:20 AM 72.1°F22.3°C 69.3°F20.7°C 91% 1.2 mph WSW1.9 kmh WSW 2.3 mph3.7 kmh 29.73 in1006.8 mb - 0.00 in0.0 mm 0.80 in20.3 mm
09:30 AM 72.2°F22.3°C 69.1°F20.6°C 90% Calm Calm -- 29.74 in1007.1 mb - 0.00 in0.0 mm 0.80 in20.3 mm
09:40 AM 72.6°F22.6°C 69.8°F21.0°C 91% 1.2 mph N1.9 kmh N 3.5 mph5.6 kmh 29.76 in1007.8 mb - 0.00 in0.0 mm 0.80 in20.3 mm
09:50 AM 73.1°F22.8°C 70.0°F21.1°C 90% 3.5 mph NNE5.6 kmh NNE 3.5 mph5.6 kmh 29.77 in1008.1 mb - 0.00 in0.0 mm 0.80 in20.3 mm
10:00 AM 73.9°F23.3°C 70.1°F21.2°C 88% 3.5 mph NNE5.6 kmh NNE 5.8 mph9.3 kmh 29.78 in1008.5 mb - 0.00 in0.0 mm 0.80 in20.3 mm
10:10 AM 74.3°F23.5°C 70.2°F21.2°C 87% 2.3 mph NE3.7 kmh NE 3.5 mph5.6 kmh 29.77 in1008.1 mb - 0.00 in0.0 mm 0.80 in20.3 mm
10:20 AM 75.1°F23.9°C 69.6°F20.9°C 83% 3.5 mph N5.6 kmh N 3.5 mph5.6 kmh 29.78 in1008.5 mb - 0.00 in0.0 mm 0.80 in20.3 mm
10:30 AM 75.5°F24.2°C 70.3°F21.3°C 84% 3.5 mph N5.6 kmh N 8.1 mph13.0 kmh 29.78 in1008.5 mb - 0.00 in0.0 mm 0.80 in20.3 mm
10:40 AM 76.0°F24.4°C 70.5°F21.4°C 83% 3.5 mph NNW5.6 kmh NNW 5.8 mph9.3 kmh 29.78 in1008.5 mb - 0.00 in0.0 mm 0.80 in20.3 mm
10:50 AM 76.5°F24.7°C 70.9°F21.6°C 83% 3.5 mph N5.6 kmh N 5.8 mph9.3 kmh 29.77 in1008.1 mb - 0.00 in0.0 mm 0.80 in20.3 mm
11:00 AM 77.2°F25.1°C 71.3°F21.8°C 82% 4.6 mph N7.4 kmh N 6.9 mph11.1 kmh 29.77 in1008.1 mb - 0.00 in0.0 mm 0.80 in20.3 mm
11:10 AM 77.7°F25.4°C 71.4°F21.9°C 81% 3.5 mph N5.6 kmh N 4.6 mph7.4 kmh 29.77 in1008.1 mb - 0.00 in0.0 mm 0.80 in20.3 mm
11:20 AM 78.6°F25.9°C 72.3°F22.4°C 81% 6.9 mph NNE11.1 kmh NNE 9.2 mph14.8 kmh 29.78 in1008.5 mb - 0.00 in0.0 mm 0.80 in20.3 mm
11:30 AM 78.6°F25.9°C 71.9°F22.2°C 80% 3.5 mph NNW5.6 kmh NNW 5.8 mph9.3 kmh 29.79 in1008.8 mb - 0.00 in0.0 mm 0.80 in20.3 mm
11:40 AM 78.8°F26.0°C 72.9°F22.7°C 82% 2.3 mph WNW3.7 kmh WNW 3.5 mph5.6 kmh 29.79 in1008.8 mb - 0.00 in0.0 mm 0.80 in20.3 mm
11:50 AM 79.3°F26.3°C 72.9°F22.7°C 81% 3.5 mph N5.6 kmh N 6.9 mph11.1 kmh 29.79 in1008.8 mb - 0.00 in0.0 mm 0.80 in20.3 mm
12:00 PM 79.9°F26.6°C 72.4°F22.4°C 78% 2.3 mph NW3.7 kmh NW 5.8 mph9.3 kmh 29.79 in1008.8 mb - 0.00 in0.0 mm 0.80 in20.3 mm
12:10 PM 80.2°F26.8°C 71.6°F22.0°C 75% 2.3 mph NW3.7 kmh NW 3.5 mph5.6 kmh 29.79 in1008.8 mb - 0.00 in0.0 mm 0.80 in20.3 mm
12:20 PM 80.3°F26.8°C 73.2°F22.9°C 79% 4.6 mph N7.4 kmh N 5.8 mph9.3 kmh 29.79 in1008.8 mb - 0.00 in0.0 mm 0.80 in20.3 mm
12:30 PM 81.1°F27.3°C 72.4°F22.4°C 75% 2.3 mph NNE3.7 kmh NNE 3.5 mph5.6 kmh 29.79 in1008.8 mb - 0.00 in0.0 mm 0.80 in20.3 mm
12:40 PM 81.3°F27.4°C 74.2°F23.4°C 79% 1.2 mph NW1.9 kmh NW 3.5 mph5.6 kmh 29.79 in1008.8 mb - 0.00 in0.0 mm 0.80 in20.3 mm
12:50 PM 81.2°F27.3°C 72.1°F22.3°C 74% 1.2 mph W1.9 kmh W 3.5 mph5.6 kmh 29.79 in1008.8 mb - 0.00 in0.0 mm 0.80 in20.3 mm
01:00 PM 81.9°F27.7°C 72.4°F22.4°C 73% 3.5 mph WNW5.6 kmh WNW 5.8 mph9.3 kmh 29.78 in1008.5 mb - 0.00 in0.0 mm 0.80 in20.3 mm
01:10 PM 82.6°F28.1°C 73.8°F23.2°C 75% 3.5 mph WNW5.6 kmh WNW 5.8 mph9.3 kmh 29.78 in1008.5 mb - 0.00 in0.0 mm 0.80 in20.3 mm
01:20 PM 82.2°F27.9°C 73.1°F22.8°C 74% 3.5 mph NW5.6 kmh NW 5.8 mph9.3 kmh 29.78 in1008.5 mb - 0.00 in0.0 mm 0.80 in20.3 mm
01:30 PM 82.9°F28.3°C 75.4°F24.1°C 78% 2.3 mph W3.7 kmh W 8.1 mph13.0 kmh 29.78 in1008.5 mb - 0.00 in0.0 mm 0.80 in20.3 mm
01:40 PM 83.5°F28.6°C 74.8°F23.8°C 75% 3.5 mph WNW5.6 kmh WNW 3.5 mph5.6 kmh 29.77 in1008.1 mb - 0.00 in0.0 mm 0.80 in20.3 mm
01:50 PM 82.9°F28.3°C 74.2°F23.4°C 75% 2.3 mph W3.7 kmh W 3.5 mph5.6 kmh 29.77 in1008.1 mb - 0.00 in0.0 mm 0.80 in20.3 mm
02:00 PM 83.1°F28.4°C 74.4°F23.6°C 75% 1.2 mph NNE1.9 kmh NNE 3.5 mph5.6 kmh 29.77 in1008.1 mb - 0.00 in0.0 mm 0.80 in20.3 mm
02:10 PM 83.8°F28.8°C 75.9°F24.4°C 77% 4.6 mph NW7.4 kmh NW 5.8 mph9.3 kmh 29.77 in1008.1 mb - 0.00 in0.0 mm 0.80 in20.3 mm
02:20 PM 84.2°F29.0°C 75.0°F23.9°C 74% 3.5 mph NW5.6 kmh NW 6.9 mph11.1 kmh 29.77 in1008.1 mb - 0.00 in0.0 mm 0.80 in20.3 mm
02:30 PM 84.6°F29.2°C 74.2°F23.4°C 71% 3.5 mph N5.6 kmh N 4.6 mph7.4 kmh 29.77 in1008.1 mb - 0.00 in0.0 mm 0.80 in20.3 mm
02:40 PM 83.8°F28.8°C 74.6°F23.7°C 74% 1.2 mph NW1.9 kmh NW 3.5 mph5.6 kmh 29.77 in1008.1 mb - 0.00 in0.0 mm 0.80 in20.3 mm
02:50 PM 84.1°F28.9°C 74.5°F23.6°C 73% 2.3 mph WNW3.7 kmh WNW 3.5 mph5.6 kmh 29.77 in1008.1 mb - 0.00 in0.0 mm 0.80 in20.3 mm
03:00 PM 85.0°F29.4°C 73.7°F23.2°C 69% 1.2 mph NNW1.9 kmh NNW 4.6 mph7.4 kmh 29.76 in1007.8 mb - 0.00 in0.0 mm 0.80 in20.3 mm
03:10 PM 85.8°F29.9°C 74.9°F23.8°C 70% 3.5 mph NW5.6 kmh NW 4.6 mph7.4 kmh 29.76 in1007.8 mb - 0.00 in0.0 mm 0.80 in20.3 mm
03:20 PM 85.9°F29.9°C 74.1°F23.4°C 68% 2.3 mph NW3.7 kmh NW 3.5 mph5.6 kmh 29.76 in1007.8 mb - 0.00 in0.0 mm 0.80 in20.3 mm
03:30 PM 85.3°F29.6°C 74.4°F23.6°C 70% 2.3 mph NW3.7 kmh NW 3.5 mph5.6 kmh 29.76 in1007.8 mb - 0.00 in0.0 mm 0.80 in20.3 mm
03:40 PM 85.2°F29.6°C 75.2°F24.0°C 72% 3.5 mph NW5.6 kmh NW 5.8 mph9.3 kmh 29.76 in1007.8 mb - 0.00 in0.0 mm 0.80 in20.3 mm
03:50 PM 85.6°F29.8°C 75.1°F23.9°C 71% 3.5 mph NW5.6 kmh NW 4.6 mph7.4 kmh 29.76 in1007.8 mb - 0.00 in0.0 mm 0.80 in20.3 mm
04:00 PM 85.5°F29.7°C 74.6°F23.7°C 70% 2.3 mph NW3.7 kmh NW 3.5 mph5.6 kmh 29.76 in1007.8 mb - 0.00 in0.0 mm 0.80 in20.3 mm
04:10 PM 86.2°F30.1°C 75.7°F24.3°C 71% 4.6 mph NW7.4 kmh NW 4.6 mph7.4 kmh 29.76 in1007.8 mb - 0.00 in0.0 mm 0.80 in20.3 mm
04:20 PM 84.5°F29.2°C 74.9°F23.8°C 73% 2.3 mph NNW3.7 kmh NNW 4.6 mph7.4 kmh 29.76 in1007.8 mb - 0.00 in0.0 mm 0.80 in20.3 mm
04:30 PM 84.1°F28.9°C 74.5°F23.6°C 73% 2.3 mph NNW3.7 kmh NNW 3.5 mph5.6 kmh 29.76 in1007.8 mb - 0.00 in0.0 mm 0.80 in20.3 mm
04:40 PM 83.5°F28.6°C 75.2°F24.0°C 76% Calm Calm 1.2 mph1.9 kmh 29.76 in1007.8 mb - 0.00 in0.0 mm 0.80 in20.3 mm
04:50 PM 83.4°F28.6°C 74.6°F23.7°C 75% 1.2 mph NW1.9 kmh NW 3.5 mph5.6 kmh 29.76 in1007.8 mb - 0.00 in0.0 mm 0.80 in20.3 mm
05:00 PM 84.2°F29.0°C 74.6°F23.7°C 73% 2.3 mph WNW3.7 kmh WNW 3.5 mph5.6 kmh 29.75 in1007.5 mb - 0.00 in0.0 mm 0.80 in20.3 mm
05:10 PM 83.6°F28.7°C 76.0°F24.4°C 78% 2.3 mph NW3.7 kmh NW 3.5 mph5.6 kmh 29.75 in1007.5 mb - 0.00 in0.0 mm 0.80 in20.3 mm
05:20 PM 83.3°F28.5°C 75.3°F24.1°C 77% 2.3 mph WNW3.7 kmh WNW 3.5 mph5.6 kmh 29.75 in1007.5 mb - 0.00 in0.0 mm 0.80 in20.3 mm
05:30 PM 83.5°F28.6°C 75.9°F24.4°C 78% 1.2 mph WNW1.9 kmh WNW 2.3 mph3.7 kmh 29.75 in1007.5 mb - 0.00 in0.0 mm 0.80 in20.3 mm
05:40 PM 83.4°F28.6°C 74.6°F23.7°C 75% 3.5 mph W5.6 kmh W 3.5 mph5.6 kmh 29.75 in1007.5 mb - 0.00 in0.0 mm 0.80 in20.3 mm
05:50 PM 83.1°F28.4°C 75.1°F23.9°C 77% 2.3 mph WSW3.7 kmh WSW 3.5 mph5.6 kmh 29.75 in1007.5 mb - 0.00 in0.0 mm 0.80 in20.3 mm
06:00 PM 83.2°F28.4°C 75.6°F24.2°C 78% 1.2 mph WSW1.9 kmh WSW 3.5 mph5.6 kmh 29.75 in1007.5 mb - 0.00 in0.0 mm 0.80 in20.3 mm
06:10 PM 83.4°F28.6°C 75.8°F24.3°C 78% Calm Calm 1.2 mph1.9 kmh 29.75 in1007.5 mb - 0.00 in0.0 mm 0.80 in20.3 mm
06:20 PM 83.0°F28.3°C 75.1°F23.9°C 77% 2.3 mph WSW3.7 kmh WSW 3.5 mph5.6 kmh 29.75 in1007.5 mb - 0.00 in0.0 mm 0.80 in20.3 mm
06:30 PM 83.4°F28.6°C 75.4°F24.1°C 77% 3.5 mph W5.6 kmh W 3.5 mph5.6 kmh 29.75 in1007.5 mb - 0.00 in0.0 mm 0.80 in20.3 mm
06:40 PM 82.8°F28.2°C 74.8°F23.8°C 77% 2.3 mph WSW3.7 kmh WSW 3.5 mph5.6 kmh 29.75 in1007.5 mb - 0.00 in0.0 mm 0.80 in20.3 mm
06:50 PM 82.1°F27.8°C 74.6°F23.7°C 78% Calm Calm 1.2 mph1.9 kmh 29.75 in1007.5 mb - 0.00 in0.0 mm 0.80 in20.3 mm
07:00 PM 81.7°F27.6°C 75.3°F24.1°C 81% 1.2 mph W1.9 kmh W 2.3 mph3.7 kmh 29.75 in1007.5 mb - 0.00 in0.0 mm 0.80 in20.3 mm
07:10 PM 81.8°F27.7°C 75.7°F24.3°C 82% 1.2 mph W1.9 kmh W 2.3 mph3.7 kmh 29.75 in1007.5 mb - 0.00 in0.0 mm 0.80 in20.3 mm
07:20 PM 81.6°F27.6°C 75.5°F24.2°C 82% 1.2 mph W1.9 kmh W 1.2 mph1.9 kmh 29.74 in1007.1 mb - 0.00 in0.0 mm 0.80 in20.3 mm
07:30 PM 81.1°F27.3°C 76.9°F24.9°C 87% Calm Calm -- 29.75 in1007.5 mb - 0.00 in0.0 mm 0.80 in20.3 mm
07:40 PM 80.7°F27.1°C 75.8°F24.3°C 85% Calm Calm -- 29.74 in1007.1 mb - 0.00 in0.0 mm 0.80 in20.3 mm
07:50 PM 80.3°F26.8°C 75.8°F24.3°C 86% Calm Calm -- 29.74 in1007.1 mb - 0.00 in0.0 mm 0.80 in20.3 mm
08:00 PM 79.7°F26.5°C 76.5°F24.7°C 90% Calm Calm -- 29.75 in1007.5 mb - 0.00 in0.0 mm 0.80 in20.3 mm
08:10 PM 79.3°F26.3°C 76.1°F24.5°C 90% Calm Calm -- 29.74 in1007.1 mb - 0.00 in0.0 mm 0.80 in20.3 mm
08:20 PM 78.8°F26.0°C 75.9°F24.4°C 91% Calm Calm -- 29.75 in1007.5 mb - 0.00 in0.0 mm 0.80 in20.3 mm
08:30 PM 78.2°F25.7°C 75.4°F24.1°C 91% Calm Calm -- 29.75 in1007.5 mb - 0.00 in0.0 mm 0.80 in20.3 mm
08:40 PM 77.8°F25.4°C 75.3°F24.1°C 92% Calm Calm -- 29.75 in1007.5 mb - 0.00 in0.0 mm 0.80 in20.3 mm
08:50 PM 77.7°F25.4°C 75.5°F24.2°C 93% Calm Calm -- 29.75 in1007.5 mb - 0.00 in0.0 mm 0.80 in20.3 mm
09:00 PM 77.8°F25.4°C 75.7°F24.3°C 93% Calm Calm -- 29.75 in1007.5 mb - 0.00 in0.0 mm 0.80 in20.3 mm
09:10 PM 78.0°F25.6°C 76.1°F24.5°C 94% Calm Calm -- 29.75 in1007.5 mb - 0.00 in0.0 mm 0.80 in20.3 mm
09:20 PM 77.9°F25.5°C 76.1°F24.5°C 94% Calm Calm -- 29.76 in1007.8 mb - 0.00 in0.0 mm 0.80 in20.3 mm
09:30 PM 78.3°F25.7°C 76.1°F24.5°C 93% Calm Calm 1.2 mph1.9 kmh 29.75 in1007.5 mb - 0.00 in0.0 mm 0.80 in20.3 mm
09:40 PM 78.0°F25.6°C 75.5°F24.2°C 92% Calm Calm -- 29.76 in1007.8 mb - 0.00 in0.0 mm 0.80 in20.3 mm
09:50 PM 78.0°F25.6°C 75.2°F24.0°C 91% Calm Calm -- 29.76 in1007.8 mb - 0.00 in0.0 mm 0.80 in20.3 mm
10:00 PM 78.0°F25.6°C 75.2°F24.0°C 91% Calm Calm -- 29.76 in1007.8 mb - 0.00 in0.0 mm 0.80 in20.3 mm
10:10 PM 77.4°F25.2°C 74.9°F23.8°C 92% Calm Calm -- 29.76 in1007.8 mb - 0.00 in0.0 mm 0.80 in20.3 mm
10:20 PM 76.3°F24.6°C 74.4°F23.6°C 94% Calm Calm 1.2 mph1.9 kmh 29.76 in1007.8 mb - 0.00 in0.0 mm 0.80 in20.3 mm
10:30 PM 75.6°F24.2°C 74.0°F23.3°C 95% Calm Calm -- 29.76 in1007.8 mb - 0.00 in0.0 mm 0.80 in20.3 mm
10:40 PM 75.4°F24.1°C 74.2°F23.4°C 96% Calm Calm -- 29.76 in1007.8 mb - 0.00 in0.0 mm 0.80 in20.3 mm
10:50 PM 75.4°F24.1°C 74.2°F23.4°C 96% Calm Calm -- 29.76 in1007.8 mb - 0.00 in0.0 mm 0.80 in20.3 mm
11:00 PM 75.6°F24.2°C 74.3°F23.5°C 96% Calm Calm 1.2 mph1.9 kmh 29.76 in1007.8 mb - 0.00 in0.0 mm 0.80 in20.3 mm
11:10 PM 75.4°F24.1°C 74.2°F23.4°C 96% Calm Calm -- 29.75 in1007.5 mb - 0.00 in0.0 mm 0.80 in20.3 mm
11:20 PM 75.1°F23.9°C 73.9°F23.3°C 96% Calm Calm -- 29.75 in1007.5 mb - 0.00 in0.0 mm 0.80 in20.3 mm
11:30 PM 74.9°F23.8°C 73.7°F23.2°C 96% Calm Calm -- 29.75 in1007.5 mb - 0.00 in0.0 mm 0.80 in20.3 mm
11:40 PM 74.4°F23.6°C 73.2°F22.9°C 96% Calm Calm -- 29.75 in1007.5 mb - 0.00 in0.0 mm 0.80 in20.3 mm
11:50 PM 74.0°F23.3°C 72.8°F22.7°C 96% Calm Calm -- 29.75 in1007.5 mb - 0.00 in0.0 mm 0.80 in20.3 mm